Hartley Bay, Canada
Current Conditions -  °F | °C
As of 12:00 PM on Saturday 25 Oct 2014 (Local Time) from CYXT Reporting Station
Scattered Clouds Scattered Clouds  
Wind Chill: 34°   Ceiling: Unl
Heat Index: 43°   Visibility: 20mi
Dew Point: 36°   Wind: 20mph
Humidity: 76%   Direction: 360°N
Pressure: 29.61"   Gusts: NA
Location:  53.43°N, 129.27°W
Report Text: CYXT 251900Z 36017KT 20SM FEW010 SCT090 SCT220 06/02 A2961 RMK SF1AC2CI1 SLP033
Loading
Personal Weather Stations






























Interactive Weather Map
Tropical Storm Tracking
New forecast layout! Learn more

10-Day Weather Forecast

Advertisements
Track Severe Weather on mobile